sensor_id;sensor_type;location;lat;lon;timestamp;P1;durP1;ratioP1;P2;durP2;ratioP2
61531;SDS011;47397;48.194;11.632;2023-04-21T00:00:41;15.13;;;11.88;;
61531;SDS011;47397;48.194;11.632;2023-04-21T00:01:43;13.93;;;11.35;;
61531;SDS011;47397;48.194;11.632;2023-04-21T00:02:46;13.60;;;11.95;;
61531;SDS011;47397;48.194;11.632;2023-04-21T00:03:46;14.50;;;12.18;;
61531;SDS011;47397;48.194;11.632;2023-04-21T00:04:47;14.63;;;12.05;;
61531;SDS011;47397;48.194;11.632;2023-04-21T00:05:47;14.52;;;10.95;;
61531;SDS011;47397;48.194;11.632;2023-04-21T00:06:48;15.57;;;12.35;;
61531;SDS011;47397;48.194;11.632;2023-04-21T00:07:48;13.65;;;11.27;;
61531;SDS011;47397;48.194;11.632;2023-04-21T00:08:49;14.30;;;11.70;;
61531;SDS011;47397;48.194;11.632;2023-04-21T00:09:50;14.68;;;11.77;;
61531;SDS011;47397;48.194;11.632;2023-04-21T00:10:51;14.85;;;12.20;;
61531;SDS011;47397;48.194;11.632;2023-04-21T00:11:52;14.23;;;11.13;;
61531;SDS011;47397;48.194;11.632;2023-04-21T00:12:52;15.18;;;11.70;;
61531;SDS011;47397;48.194;11.632;2023-04-21T00:13:53;14.63;;;11.98;;
61531;SDS011;47397;48.194;11.632;2023-04-21T00:14:53;15.18;;;12.02;;
61531;SDS011;47397;48.194;11.632;2023-04-21T00:15:54;14.82;;;11.65;;
61531;SDS011;47397;48.194;11.632;2023-04-21T00:16:54;15.90;;;11.40;;
61531;SDS011;47397;48.194;11.632;2023-04-21T00:17:55;14.35;;;11.52;;
61531;SDS011;47397;48.194;11.632;2023-04-21T00:18:55;12.85;;;10.57;;
61531;SDS011;47397;48.194;11.632;2023-04-21T00:19:55;15.00;;;11.85;;
61531;SDS011;47397;48.194;11.632;2023-04-21T00:20:56;13.60;;;11.75;;
61531;SDS011;47397;48.194;11.632;2023-04-21T00:21:56;14.45;;;11.40;;
61531;SDS011;47397;48.194;11.632;2023-04-21T00:22:57;12.45;;;11.15;;
61531;SDS011;47397;48.194;11.632;2023-04-21T00:23:58;13.23;;;11.38;;
61531;SDS011;47397;48.194;11.632;2023-04-21T00:24:59;14.60;;;10.88;;
61531;SDS011;47397;48.194;11.632;2023-04-21T00:26:00;13.90;;;11.45;;
61531;SDS011;47397;48.194;11.632;2023-04-21T00:27:01;12.50;;;10.65;;
61531;SDS011;47397;48.194;11.632;2023-04-21T00:28:01;12.88;;;10.65;;
61531;SDS011;47397;48.194;11.632;2023-04-21T00:29:02;15.00;;;11.25;;
61531;SDS011;47397;48.194;11.632;2023-04-21T00:30:02;13.52;;;10.85;;
61531;SDS011;47397;48.194;11.632;2023-04-21T00:31:03;13.02;;;11.27;;
61531;SDS011;47397;48.194;11.632;2023-04-21T00:32:04;13.00;;;10.30;;
61531;SDS011;47397;48.194;11.632;2023-04-21T00:33:05;13.55;;;10.15;;
61531;SDS011;47397;48.194;11.632;2023-04-21T00:34:05;14.63;;;11.07;;
61531;SDS011;47397;48.194;11.632;2023-04-21T00:35:06;13.02;;;10.55;;
61531;SDS011;47397;48.194;11.632;2023-04-21T00:36:07;12.63;;;10.65;;
61531;SDS011;47397;48.194;11.632;2023-04-21T00:37:07;14.10;;;10.75;;
61531;SDS011;47397;48.194;11.632;2023-04-21T00:38:08;12.13;;;10.75;;
61531;SDS011;47397;48.194;11.632;2023-04-21T00:39:08;14.30;;;10.55;;
61531;SDS011;47397;48.194;11.632;2023-04-21T00:40:09;14.45;;;10.45;;
61531;SDS011;47397;48.194;11.632;2023-04-21T00:41:11;11.98;;;10.05;;
61531;SDS011;47397;48.194;11.632;2023-04-21T00:42:13;11.55;;;9.57;;
61531;SDS011;47397;48.194;11.632;2023-04-21T00:43:14;12.20;;;10.45;;
61531;SDS011;47397;48.194;11.632;2023-04-21T00:44:14;12.23;;;9.75;;
61531;SDS011;47397;48.194;11.632;2023-04-21T00:45:15;11.48;;;9.77;;
61531;SDS011;47397;48.194;11.632;2023-04-21T00:46:15;13.15;;;9.60;;
61531;SDS011;47397;48.194;11.632;2023-04-21T00:47:16;10.80;;;9.57;;
61531;SDS011;47397;48.194;11.632;2023-04-21T00:48:16;13.35;;;10.10;;
61531;SDS011;47397;48.194;11.632;2023-04-21T00:49:16;11.68;;;10.48;;
61531;SDS011;47397;48.194;11.632;2023-04-21T00:50:17;12.18;;;9.82;;
61531;SDS011;47397;48.194;11.632;2023-04-21T00:51:17;12.02;;;9.55;;
61531;SDS011;47397;48.194;11.632;2023-04-21T00:52:18;12.10;;;9.98;;
61531;SDS011;47397;48.194;11.632;2023-04-21T00:53:19;11.85;;;9.40;;
61531;SDS011;47397;48.194;11.632;2023-04-21T00:54:20;11.52;;;9.77;;
61531;SDS011;47397;48.194;11.632;2023-04-21T00:55:23;12.07;;;9.68;;
61531;SDS011;47397;48.194;11.632;2023-04-21T00:56:25;11.27;;;9.70;;
61531;SDS011;47397;48.194;11.632;2023-04-21T00:57:27;13.52;;;10.23;;
61531;SDS011;47397;48.194;11.632;2023-04-21T00:58:27;12.40;;;10.63;;
61531;SDS011;47397;48.194;11.632;2023-04-21T00:59:28;12.02;;;10.13;;
61531;SDS011;47397;48.194;11.632;2023-04-21T01:00:28;11.50;;;9.73;;
61531;SDS011;47397;48.194;11.632;2023-04-21T01:01:29;12.15;;;9.50;;
61531;SDS011;47397;48.194;11.632;2023-04-21T01:02:31;12.27;;;9.85;;
61531;SDS011;47397;48.194;11.632;2023-04-21T01:03:33;11.73;;;9.35;;
61531;SDS011;47397;48.194;11.632;2023-04-21T01:04:34;12.60;;;9.88;;
61531;SDS011;47397;48.194;11.632;2023-04-21T01:05:35;11.70;;;10.00;;
61531;SDS011;47397;48.194;11.632;2023-04-21T01:06:35;11.93;;;9.65;;
61531;SDS011;47397;48.194;11.632;2023-04-21T01:07:36;12.05;;;9.82;;
61531;SDS011;47397;48.194;11.632;2023-04-21T01:08:36;11.15;;;9.20;;
61531;SDS011;47397;48.194;11.632;2023-04-21T01:09:37;11.68;;;9.40;;
61531;SDS011;47397;48.194;11.632;2023-04-21T01:10:37;10.07;;;8.70;;
61531;SDS011;47397;48.194;11.632;2023-04-21T01:11:39;11.60;;;9.77;;
61531;SDS011;47397;48.194;11.632;2023-04-21T01:12:43;11.05;;;9.60;;
61531;SDS011;47397;48.194;11.632;2023-04-21T01:13:44;11.93;;;9.55;;
61531;SDS011;47397;48.194;11.632;2023-04-21T01:14:44;13.00;;;10.18;;
61531;SDS011;47397;48.194;11.632;2023-04-21T01:15:45;12.82;;;10.63;;
61531;SDS011;47397;48.194;11.632;2023-04-21T01:16:45;10.80;;;8.85;;
61531;SDS011;47397;48.194;11.632;2023-04-21T01:17:46;11.38;;;9.75;;
61531;SDS011;47397;48.194;11.632;2023-04-21T01:18:46;10.23;;;8.90;;
61531;SDS011;47397;48.194;11.632;2023-04-21T01:19:46;11.77;;;9.50;;
61531;SDS011;47397;48.194;11.632;2023-04-21T01:20:48;10.98;;;9.50;;
61531;SDS011;47397;48.194;11.632;2023-04-21T01:21:50;12.63;;;9.45;;
61531;SDS011;47397;48.194;11.632;2023-04-21T01:22:51;11.40;;;9.40;;
61531;SDS011;47397;48.194;11.632;2023-04-21T01:23:51;12.15;;;9.63;;
61531;SDS011;47397;48.194;11.632;2023-04-21T01:24:52;11.40;;;9.40;;
61531;SDS011;47397;48.194;11.632;2023-04-21T01:25:52;12.07;;;9.07;;
61531;SDS011;47397;48.194;11.632;2023-04-21T01:26:53;13.07;;;9.00;;
61531;SDS011;47397;48.194;11.632;2023-04-21T01:27:53;10.75;;;8.77;;
61531;SDS011;47397;48.194;11.632;2023-04-21T01:28:55;10.48;;;9.30;;
61531;SDS011;47397;48.194;11.632;2023-04-21T01:29:56;13.32;;;9.95;;
61531;SDS011;47397;48.194;11.632;2023-04-21T01:30:56;13.05;;;10.60;;
61531;SDS011;47397;48.194;11.632;2023-04-21T01:31:57;11.75;;;10.27;;
61531;SDS011;47397;48.194;11.632;2023-04-21T01:32:57;11.93;;;9.90;;
61531;SDS011;47397;48.194;11.632;2023-04-21T01:34:01;12.00;;;9.70;;
61531;SDS011;47397;48.194;11.632;2023-04-21T01:35:02;13.10;;;9.80;;
61531;SDS011;47397;48.194;11.632;2023-04-21T01:36:03;10.95;;;8.90;;
61531;SDS011;47397;48.194;11.632;2023-04-21T01:37:07;11.43;;;8.43;;
61531;SDS011;47397;48.194;11.632;2023-04-21T01:38:08;11.43;;;9.65;;
61531;SDS011;47397;48.194;11.632;2023-04-21T01:39:08;10.43;;;8.57;;
61531;SDS011;47397;48.194;11.632;2023-04-21T01:40:09;11.10;;;9.20;;
61531;SDS011;47397;48.194;11.632;2023-04-21T01:41:10;12.90;;;10.05;;
61531;SDS011;47397;48.194;11.632;2023-04-21T01:42:10;11.38;;;9.20;;
61531;SDS011;47397;48.194;11.632;2023-04-21T01:43:12;11.27;;;9.60;;
61531;SDS011;47397;48.194;11.632;2023-04-21T01:44:13;12.73;;;9.95;;
61531;SDS011;47397;48.194;11.632;2023-04-21T01:45:13;12.27;;;9.20;;
61531;SDS011;47397;48.194;11.632;2023-04-21T01:46:13;10.98;;;9.15;;
61531;SDS011;47397;48.194;11.632;2023-04-21T01:47:14;12.27;;;9.88;;
61531;SDS011;47397;48.194;11.632;2023-04-21T01:48:15;12.10;;;9.15;;
61531;SDS011;47397;48.194;11.632;2023-04-21T01:49:15;12.30;;;9.63;;
61531;SDS011;47397;48.194;11.632;2023-04-21T01:50:15;11.02;;;9.63;;
61531;SDS011;47397;48.194;11.632;2023-04-21T01:51:17;11.23;;;9.40;;
61531;SDS011;47397;48.194;11.632;2023-04-21T01:52:19;11.73;;;9.05;;
61531;SDS011;47397;48.194;11.632;2023-04-21T01:53:19;11.82;;;9.90;;
61531;SDS011;47397;48.194;11.632;2023-04-21T01:54:20;12.45;;;9.90;;
61531;SDS011;47397;48.194;11.632;2023-04-21T01:55:20;13.55;;;10.30;;
61531;SDS011;47397;48.194;11.632;2023-04-21T01:56:21;12.15;;;9.90;;
61531;SDS011;47397;48.194;11.632;2023-04-21T01:57:22;14.63;;;10.23;;
61531;SDS011;47397;48.194;11.632;2023-04-21T01:58:22;11.43;;;9.60;;
61531;SDS011;47397;48.194;11.632;2023-04-21T01:59:23;12.00;;;9.05;;
61531;SDS011;47397;48.194;11.632;2023-04-21T02:00:23;12.25;;;9.35;;
61531;SDS011;47397;48.194;11.632;2023-04-21T02:01:24;12.70;;;10.07;;
61531;SDS011;47397;48.194;11.632;2023-04-21T02:02:24;11.15;;;9.18;;
61531;SDS011;47397;48.194;11.632;2023-04-21T02:03:25;11.38;;;9.05;;
61531;SDS011;47397;48.194;11.632;2023-04-21T02:04:25;10.38;;;9.10;;
61531;SDS011;47397;48.194;11.632;2023-04-21T02:05:25;11.82;;;9.18;;
61531;SDS011;47397;48.194;11.632;2023-04-21T02:06:26;14.98;;;9.75;;
61531;SDS011;47397;48.194;11.632;2023-04-21T02:07:28;14.82;;;10.70;;
61531;SDS011;47397;48.194;11.632;2023-04-21T02:08:28;13.20;;;9.70;;
61531;SDS011;47397;48.194;11.632;2023-04-21T02:09:28;12.63;;;10.50;;
61531;SDS011;47397;48.194;11.632;2023-04-21T02:10:29;13.48;;;9.77;;
61531;SDS011;47397;48.194;11.632;2023-04-21T02:11:29;12.68;;;10.75;;
61531;SDS011;47397;48.194;11.632;2023-04-21T02:12:30;12.88;;;9.80;;
61531;SDS011;47397;48.194;11.632;2023-04-21T02:13:30;11.82;;;9.63;;
61531;SDS011;47397;48.194;11.632;2023-04-21T02:14:30;12.07;;;9.73;;
61531;SDS011;47397;48.194;11.632;2023-04-21T02:15:31;13.88;;;9.90;;
61531;SDS011;47397;48.194;11.632;2023-04-21T02:16:31;11.50;;;9.20;;
61531;SDS011;47397;48.194;11.632;2023-04-21T02:17:32;11.13;;;8.93;;
61531;SDS011;47397;48.194;11.632;2023-04-21T02:18:32;11.82;;;8.93;;
61531;SDS011;47397;48.194;11.632;2023-04-21T02:19:32;11.07;;;9.68;;
61531;SDS011;47397;48.194;11.632;2023-04-21T02:20:33;10.93;;;9.27;;
61531;SDS011;47397;48.194;11.632;2023-04-21T02:21:33;12.23;;;9.48;;
61531;SDS011;47397;48.194;11.632;2023-04-21T02:22:35;11.98;;;9.30;;
61531;SDS011;47397;48.194;11.632;2023-04-21T02:23:36;13.73;;;9.32;;
61531;SDS011;47397;48.194;11.632;2023-04-21T02:24:36;12.18;;;9.48;;
61531;SDS011;47397;48.194;11.632;2023-04-21T02:25:37;13.35;;;9.88;;
61531;SDS011;47397;48.194;11.632;2023-04-21T02:26:37;11.07;;;8.80;;
61531;SDS011;47397;48.194;11.632;2023-04-21T02:27:38;12.77;;;9.48;;
61531;SDS011;47397;48.194;11.632;2023-04-21T02:28:38;13.50;;;10.15;;
61531;SDS011;47397;48.194;11.632;2023-04-21T02:29:38;13.00;;;9.52;;
61531;SDS011;47397;48.194;11.632;2023-04-21T02:30:39;13.85;;;9.55;;
61531;SDS011;47397;48.194;11.632;2023-04-21T02:31:39;11.63;;;9.63;;
61531;SDS011;47397;48.194;11.632;2023-04-21T02:32:40;12.50;;;9.18;;
61531;SDS011;47397;48.194;11.632;2023-04-21T02:33:40;12.63;;;9.15;;
61531;SDS011;47397;48.194;11.632;2023-04-21T02:34:41;10.90;;;9.15;;
61531;SDS011;47397;48.194;11.632;2023-04-21T02:35:41;12.75;;;9.75;;
61531;SDS011;47397;48.194;11.632;2023-04-21T02:36:42;11.57;;;8.77;;
61531;SDS011;47397;48.194;11.632;2023-04-21T02:37:43;12.30;;;9.48;;
61531;SDS011;47397;48.194;11.632;2023-04-21T02:38:44;11.90;;;9.23;;
61531;SDS011;47397;48.194;11.632;2023-04-21T02:39:44;11.55;;;9.38;;
61531;SDS011;47397;48.194;11.632;2023-04-21T02:40:44;11.20;;;8.88;;
61531;SDS011;47397;48.194;11.632;2023-04-21T02:41:45;12.80;;;9.50;;
61531;SDS011;47397;48.194;11.632;2023-04-21T02:42:45;11.70;;;9.13;;
61531;SDS011;47397;48.194;11.632;2023-04-21T02:43:46;10.43;;;8.50;;
61531;SDS011;47397;48.194;11.632;2023-04-21T02:44:47;10.55;;;8.55;;
61531;SDS011;47397;48.194;11.632;2023-04-21T02:45:47;10.85;;;9.35;;
61531;SDS011;47397;48.194;11.632;2023-04-21T02:46:48;11.85;;;9.68;;
61531;SDS011;47397;48.194;11.632;2023-04-21T02:47:48;11.82;;;8.95;;
61531;SDS011;47397;48.194;11.632;2023-04-21T02:48:48;11.52;;;9.18;;
61531;SDS011;47397;48.194;11.632;2023-04-21T02:49:49;12.95;;;9.65;;
61531;SDS011;47397;48.194;11.632;2023-04-21T02:50:49;11.05;;;8.68;;
61531;SDS011;47397;48.194;11.632;2023-04-21T02:51:50;15.15;;;10.02;;
61531;SDS011;47397;48.194;11.632;2023-04-21T02:52:52;10.55;;;8.90;;
61531;SDS011;47397;48.194;11.632;2023-04-21T02:53:52;11.77;;;8.88;;
61531;SDS011;47397;48.194;11.632;2023-04-21T02:54:53;11.80;;;9.15;;
61531;SDS011;47397;48.194;11.632;2023-04-21T02:55:53;12.52;;;9.05;;
61531;SDS011;47397;48.194;11.632;2023-04-21T02:56:54;11.70;;;8.68;;
61531;SDS011;47397;48.194;11.632;2023-04-21T02:57:54;11.63;;;9.15;;
61531;SDS011;47397;48.194;11.632;2023-04-21T02:58:54;10.13;;;8.88;;
61531;SDS011;47397;48.194;11.632;2023-04-21T02:59:55;11.13;;;8.73;;
61531;SDS011;47397;48.194;11.632;2023-04-21T03:00:55;11.40;;;9.25;;
61531;SDS011;47397;48.194;11.632;2023-04-21T03:01:56;11.48;;;8.85;;
61531;SDS011;47397;48.194;11.632;2023-04-21T03:02:56;11.15;;;9.38;;
61531;SDS011;47397;48.194;11.632;2023-04-21T03:03:56;11.48;;;9.00;;
61531;SDS011;47397;48.194;11.632;2023-04-21T03:04:57;11.32;;;9.07;;
61531;SDS011;47397;48.194;11.632;2023-04-21T03:05:58;13.60;;;9.35;;
61531;SDS011;47397;48.194;11.632;2023-04-21T03:06:58;10.23;;;8.13;;
61531;SDS011;47397;48.194;11.632;2023-04-21T03:08:00;11.40;;;9.25;;
61531;SDS011;47397;48.194;11.632;2023-04-21T03:09:01;11.05;;;8.50;;
61531;SDS011;47397;48.194;11.632;2023-04-21T03:10:01;11.55;;;8.98;;
61531;SDS011;47397;48.194;11.632;2023-04-21T03:11:01;12.00;;;8.30;;
61531;SDS011;47397;48.194;11.632;2023-04-21T03:12:02;10.50;;;8.07;;
61531;SDS011;47397;48.194;11.632;2023-04-21T03:13:02;10.75;;;8.10;;
61531;SDS011;47397;48.194;11.632;2023-04-21T03:14:03;10.27;;;7.93;;
61531;SDS011;47397;48.194;11.632;2023-04-21T03:15:04;11.30;;;8.65;;
61531;SDS011;47397;48.194;11.632;2023-04-21T03:16:05;11.82;;;9.05;;
61531;SDS011;47397;48.194;11.632;2023-04-21T03:17:06;10.60;;;8.75;;
61531;SDS011;47397;48.194;11.632;2023-04-21T03:18:06;12.35;;;9.32;;
61531;SDS011;47397;48.194;11.632;2023-04-21T03:19:07;11.23;;;8.70;;
61531;SDS011;47397;48.194;11.632;2023-04-21T03:20:07;14.07;;;9.40;;
61531;SDS011;47397;48.194;11.632;2023-04-21T03:21:08;12.85;;;9.63;;
61531;SDS011;47397;48.194;11.632;2023-04-21T03:22:09;9.98;;;8.23;;
61531;SDS011;47397;48.194;11.632;2023-04-21T03:23:11;12.63;;;9.65;;
61531;SDS011;47397;48.194;11.632;2023-04-21T03:24:11;12.18;;;9.38;;
61531;SDS011;47397;48.194;11.632;2023-04-21T03:25:11;11.15;;;9.15;;
61531;SDS011;47397;48.194;11.632;2023-04-21T03:26:12;12.43;;;9.60;;
61531;SDS011;47397;48.194;11.632;2023-04-21T03:27:12;12.23;;;8.98;;
61531;SDS011;47397;48.194;11.632;2023-04-21T03:28:13;12.45;;;9.40;;
61531;SDS011;47397;48.194;11.632;2023-04-21T03:29:13;12.30;;;9.15;;
61531;SDS011;47397;48.194;11.632;2023-04-21T03:30:14;12.50;;;9.75;;
61531;SDS011;47397;48.194;11.632;2023-04-21T03:31:14;12.35;;;9.45;;
61531;SDS011;47397;48.194;11.632;2023-04-21T03:32:14;11.95;;;8.95;;
61531;SDS011;47397;48.194;11.632;2023-04-21T03:33:15;12.25;;;9.50;;
61531;SDS011;47397;48.194;11.632;2023-04-21T03:34:15;12.90;;;9.75;;
61531;SDS011;47397;48.194;11.632;2023-04-21T03:35:16;12.70;;;9.43;;
61531;SDS011;47397;48.194;11.632;2023-04-21T03:36:16;13.10;;;9.35;;
61531;SDS011;47397;48.194;11.632;2023-04-21T03:37:16;12.00;;;9.75;;
61531;SDS011;47397;48.194;11.632;2023-04-21T03:38:18;10.82;;;9.18;;
61531;SDS011;47397;48.194;11.632;2023-04-21T03:39:18;10.88;;;8.73;;
61531;SDS011;47397;48.194;11.632;2023-04-21T03:40:19;13.27;;;10.35;;
61531;SDS011;47397;48.194;11.632;2023-04-21T03:41:19;14.32;;;10.43;;
61531;SDS011;47397;48.194;11.632;2023-04-21T03:42:20;13.93;;;10.63;;
61531;SDS011;47397;48.194;11.632;2023-04-21T03:43:20;14.25;;;10.85;;
61531;SDS011;47397;48.194;11.632;2023-04-21T03:44:21;14.82;;;9.82;;
61531;SDS011;47397;48.194;11.632;2023-04-21T03:45:24;12.55;;;9.90;;
61531;SDS011;47397;48.194;11.632;2023-04-21T03:46:24;11.25;;;10.05;;
61531;SDS011;47397;48.194;11.632;2023-04-21T03:47:25;12.70;;;9.98;;
61531;SDS011;47397;48.194;11.632;2023-04-21T03:48:26;12.38;;;9.65;;
61531;SDS011;47397;48.194;11.632;2023-04-21T03:49:26;13.23;;;10.73;;
61531;SDS011;47397;48.194;11.632;2023-04-21T03:50:27;11.50;;;9.82;;
61531;SDS011;47397;48.194;11.632;2023-04-21T03:51:27;12.52;;;10.35;;
61531;SDS011;47397;48.194;11.632;2023-04-21T03:52:28;13.93;;;9.98;;
61531;SDS011;47397;48.194;11.632;2023-04-21T03:53:29;15.30;;;10.10;;
61531;SDS011;47397;48.194;11.632;2023-04-21T03:54:30;14.10;;;11.23;;
61531;SDS011;47397;48.194;11.632;2023-04-21T03:55:30;14.07;;;10.18;;
61531;SDS011;47397;48.194;11.632;2023-04-21T03:56:31;15.43;;;11.25;;
61531;SDS011;47397;48.194;11.632;2023-04-21T03:57:31;13.13;;;10.65;;
61531;SDS011;47397;48.194;11.632;2023-04-21T03:58:31;14.95;;;11.30;;
61531;SDS011;47397;48.194;11.632;2023-04-21T03:59:32;14.85;;;11.00;;
61531;SDS011;47397;48.194;11.632;2023-04-21T04:00:32;12.57;;;10.15;;
61531;SDS011;47397;48.194;11.632;2023-04-21T04:01:33;12.05;;;9.15;;
61531;SDS011;47397;48.194;11.632;2023-04-21T04:02:33;11.30;;;9.57;;
61531;SDS011;47397;48.194;11.632;2023-04-21T04:03:34;12.95;;;9.48;;
61531;SDS011;47397;48.194;11.632;2023-04-21T04:04:34;12.48;;;9.18;;
61531;SDS011;47397;48.194;11.632;2023-04-21T04:05:35;12.85;;;9.70;;
61531;SDS011;47397;48.194;11.632;2023-04-21T04:06:35;13.98;;;10.50;;
61531;SDS011;47397;48.194;11.632;2023-04-21T04:07:36;12.75;;;10.57;;
61531;SDS011;47397;48.194;11.632;2023-04-21T04:08:37;14.95;;;10.95;;
61531;SDS011;47397;48.194;11.632;2023-04-21T04:09:38;15.02;;;10.95;;
61531;SDS011;47397;48.194;11.632;2023-04-21T04:10:38;14.45;;;9.98;;
61531;SDS011;47397;48.194;11.632;2023-04-21T04:11:39;13.07;;;10.05;;
61531;SDS011;47397;48.194;11.632;2023-04-21T04:12:39;14.13;;;9.63;;
61531;SDS011;47397;48.194;11.632;2023-04-21T04:13:39;12.70;;;9.35;;
61531;SDS011;47397;48.194;11.632;2023-04-21T04:14:40;13.27;;;9.70;;
61531;SDS011;47397;48.194;11.632;2023-04-21T04:15:40;13.07;;;9.85;;
61531;SDS011;47397;48.194;11.632;2023-04-21T04:16:41;13.05;;;10.02;;
61531;SDS011;47397;48.194;11.632;2023-04-21T04:17:41;12.98;;;9.80;;
61531;SDS011;47397;48.194;11.632;2023-04-21T04:18:41;12.80;;;9.93;;
61531;SDS011;47397;48.194;11.632;2023-04-21T04:19:42;13.35;;;9.90;;
61531;SDS011;47397;48.194;11.632;2023-04-21T04:20:42;13.68;;;10.35;;
61531;SDS011;47397;48.194;11.632;2023-04-21T04:21:43;13.02;;;10.32;;
61531;SDS011;47397;48.194;11.632;2023-04-21T04:22:43;14.40;;;10.70;;
61531;SDS011;47397;48.194;11.632;2023-04-21T04:23:45;13.65;;;10.38;;
61531;SDS011;47397;48.194;11.632;2023-04-21T04:24:45;13.13;;;10.18;;
61531;SDS011;47397;48.194;11.632;2023-04-21T04:25:46;13.35;;;10.88;;
61531;SDS011;47397;48.194;11.632;2023-04-21T04:26:46;13.75;;;10.85;;
61531;SDS011;47397;48.194;11.632;2023-04-21T04:27:47;14.68;;;11.18;;
61531;SDS011;47397;48.194;11.632;2023-04-21T04:28:47;14.15;;;11.23;;
61531;SDS011;47397;48.194;11.632;2023-04-21T04:29:47;18.08;;;12.23;;
61531;SDS011;47397;48.194;11.632;2023-04-21T04:30:48;15.77;;;11.93;;
61531;SDS011;47397;48.194;11.632;2023-04-21T04:31:48;14.88;;;11.05;;
61531;SDS011;47397;48.194;11.632;2023-04-21T04:32:49;14.52;;;11.93;;
61531;SDS011;47397;48.194;11.632;2023-04-21T04:33:49;15.95;;;11.35;;
61531;SDS011;47397;48.194;11.632;2023-04-21T04:34:50;15.70;;;12.10;;
61531;SDS011;47397;48.194;11.632;2023-04-21T04:35:50;15.30;;;10.80;;
61531;SDS011;47397;48.194;11.632;2023-04-21T04:36:51;12.80;;;10.07;;
61531;SDS011;47397;48.194;11.632;2023-04-21T04:37:51;14.38;;;10.50;;
61531;SDS011;47397;48.194;11.632;2023-04-21T04:38:53;14.07;;;10.82;;
61531;SDS011;47397;48.194;11.632;2023-04-21T04:39:54;14.38;;;10.52;;
61531;SDS011;47397;48.194;11.632;2023-04-21T04:40:54;13.65;;;10.13;;
61531;SDS011;47397;48.194;11.632;2023-04-21T04:41:55;12.90;;;10.20;;
61531;SDS011;47397;48.194;11.632;2023-04-21T04:42:55;15.57;;;11.07;;
61531;SDS011;47397;48.194;11.632;2023-04-21T04:43:55;13.05;;;10.50;;
61531;SDS011;47397;48.194;11.632;2023-04-21T04:44:56;15.38;;;11.05;;
61531;SDS011;47397;48.194;11.632;2023-04-21T04:45:56;16.33;;;10.85;;
61531;SDS011;47397;48.194;11.632;2023-04-21T04:46:57;13.20;;;10.52;;
61531;SDS011;47397;48.194;11.632;2023-04-21T04:47:57;15.30;;;11.27;;
61531;SDS011;47397;48.194;11.632;2023-04-21T04:48:58;14.00;;;10.40;;
61531;SDS011;47397;48.194;11.632;2023-04-21T04:49:58;12.68;;;10.35;;
61531;SDS011;47397;48.194;11.632;2023-04-21T04:50:59;13.50;;;10.25;;
61531;SDS011;47397;48.194;11.632;2023-04-21T04:51:59;12.32;;;9.85;;
61531;SDS011;47397;48.194;11.632;2023-04-21T04:53:00;13.55;;;10.55;;
61531;SDS011;47397;48.194;11.632;2023-04-21T04:54:01;12.55;;;9.32;;
61531;SDS011;47397;48.194;11.632;2023-04-21T04:55:02;11.57;;;8.95;;
61531;SDS011;47397;48.194;11.632;2023-04-21T04:56:03;12.57;;;9.18;;
61531;SDS011;47397;48.194;11.632;2023-04-21T04:57:03;12.77;;;9.60;;
61531;SDS011;47397;48.194;11.632;2023-04-21T04:58:04;12.20;;;9.68;;
61531;SDS011;47397;48.194;11.632;2023-04-21T04:59:04;11.55;;;9.18;;
61531;SDS011;47397;48.194;11.632;2023-04-21T05:00:05;12.43;;;9.52;;
61531;SDS011;47397;48.194;11.632;2023-04-21T05:01:10;13.50;;;10.05;;
61531;SDS011;47397;48.194;11.632;2023-04-21T05:02:10;12.77;;;10.07;;
61531;SDS011;47397;48.194;11.632;2023-04-21T05:03:11;15.88;;;11.20;;
61531;SDS011;47397;48.194;11.632;2023-04-21T05:04:11;14.77;;;11.35;;
61531;SDS011;47397;48.194;11.632;2023-04-21T05:05:12;15.10;;;10.88;;
61531;SDS011;47397;48.194;11.632;2023-04-21T05:06:12;13.38;;;10.38;;
61531;SDS011;47397;48.194;11.632;2023-04-21T05:07:12;15.75;;;11.57;;
61531;SDS011;47397;48.194;11.632;2023-04-21T05:08:13;13.05;;;9.63;;
61531;SDS011;47397;48.194;11.632;2023-04-21T05:09:15;14.50;;;10.70;;
61531;SDS011;47397;48.194;11.632;2023-04-21T05:10:15;13.23;;;10.00;;
61531;SDS011;47397;48.194;11.632;2023-04-21T05:11:16;12.63;;;10.20;;
61531;SDS011;47397;48.194;11.632;2023-04-21T05:12:16;13.20;;;10.52;;
61531;SDS011;47397;48.194;11.632;2023-04-21T05:13:16;13.43;;;9.88;;
61531;SDS011;47397;48.194;11.632;2023-04-21T05:14:17;14.68;;;10.88;;
61531;SDS011;47397;48.194;11.632;2023-04-21T05:15:17;13.40;;;10.40;;
61531;SDS011;47397;48.194;11.632;2023-04-21T05:16:18;13.48;;;10.65;;
61531;SDS011;47397;48.194;11.632;2023-04-21T05:17:18;13.85;;;11.23;;
61531;SDS011;47397;48.194;11.632;2023-04-21T05:18:19;15.20;;;11.15;;
61531;SDS011;47397;48.194;11.632;2023-04-21T05:19:19;14.02;;;10.50;;
61531;SDS011;47397;48.194;11.632;2023-04-21T05:20:20;14.48;;;10.63;;
61531;SDS011;47397;48.194;11.632;2023-04-21T05:21:23;13.65;;;10.63;;
61531;SDS011;47397;48.194;11.632;2023-04-21T05:22:24;14.48;;;11.68;;
61531;SDS011;47397;48.194;11.632;2023-04-21T05:23:25;14.93;;;11.38;;
61531;SDS011;47397;48.194;11.632;2023-04-21T05:24:27;13.43;;;10.55;;
61531;SDS011;47397;48.194;11.632;2023-04-21T05:25:27;15.10;;;11.23;;
61531;SDS011;47397;48.194;11.632;2023-04-21T05:26:28;15.25;;;11.02;;
61531;SDS011;47397;48.194;11.632;2023-04-21T05:27:28;13.82;;;11.27;;
61531;SDS011;47397;48.194;11.632;2023-04-21T05:28:29;14.20;;;10.98;;
61531;SDS011;47397;48.194;11.632;2023-04-21T05:29:29;14.65;;;11.40;;
61531;SDS011;47397;48.194;11.632;2023-04-21T05:30:30;13.43;;;10.02;;
61531;SDS011;47397;48.194;11.632;2023-04-21T05:31:30;13.82;;;10.52;;
61531;SDS011;47397;48.194;11.632;2023-04-21T05:32:30;13.75;;;10.82;;
61531;SDS011;47397;48.194;11.632;2023-04-21T05:33:31;12.60;;;10.25;;
61531;SDS011;47397;48.194;11.632;2023-04-21T05:34:31;14.02;;;10.60;;
61531;SDS011;47397;48.194;11.632;2023-04-21T05:35:32;13.52;;;11.32;;
61531;SDS011;47397;48.194;11.632;2023-04-21T05:36:32;14.60;;;11.48;;
61531;SDS011;47397;48.194;11.632;2023-04-21T05:37:33;15.13;;;11.05;;
61531;SDS011;47397;48.194;11.632;2023-04-21T05:38:33;13.68;;;11.30;;
61531;SDS011;47397;48.194;11.632;2023-04-21T05:39:35;13.95;;;10.20;;
61531;SDS011;47397;48.194;11.632;2023-04-21T05:40:35;13.70;;;10.88;;
61531;SDS011;47397;48.194;11.632;2023-04-21T05:41:36;13.80;;;10.40;;
61531;SDS011;47397;48.194;11.632;2023-04-21T05:42:36;12.82;;;9.73;;
61531;SDS011;47397;48.194;11.632;2023-04-21T05:43:37;14.85;;;11.02;;
61531;SDS011;47397;48.194;11.632;2023-04-21T05:44:37;11.63;;;9.75;;
61531;SDS011;47397;48.194;11.632;2023-04-21T05:45:38;12.65;;;10.57;;
61531;SDS011;47397;48.194;11.632;2023-04-21T05:46:39;15.40;;;11.07;;
61531;SDS011;47397;48.194;11.632;2023-04-21T05:47:39;13.73;;;10.82;;
61531;SDS011;47397;48.194;11.632;2023-04-21T05:48:40;14.13;;;10.75;;
61531;SDS011;47397;48.194;11.632;2023-04-21T05:49:40;12.35;;;10.75;;
61531;SDS011;47397;48.194;11.632;2023-04-21T05:50:40;12.73;;;10.77;;
61531;SDS011;47397;48.194;11.632;2023-04-21T05:51:41;12.38;;;10.73;;
61531;SDS011;47397;48.194;11.632;2023-04-21T05:52:42;12.77;;;10.73;;